Aeroporto :
LOGIN :

Iscrizione | Disclaimer

   EN    FR    IT 

 










Sommario :    VFR   VFR Marginale   IFR   IFR Intensivo   IFR Molto Intensivo
Visibilità : 
Base nubi : 
>= 8 km
>= 3000ft
5 / 8 km
1000 / 3000 ft
1500m / 5 km
500 / 1000 ft
800 / 1500m
200 / 500 ft
< 800m
< 200 ft
Simboli :   Temporali  Nebbia  Neve Forte  Precipitazioni Forti  Vento > 20 kt
SIGMETs :   Varie  Temporali  Ghiacco  Turbolenza  Onda orograficha  Ceneri Vulcaniche






- Altitudine del aeroporto : 51 ft
- Codice IATA : GWT


EDXW - Westerland-Sylt Island

ULTIMO METAR :
  • 171250Z 16009KT 6000 NSC 07/06 Q1014

METARs OBSOLETI :
  • 171220Z 16009KT 6000 NSC 06/06 Q1014
  • 171150Z 16011KT 7000 NSC 07/06 Q1014
  • 171120Z 17008KT 9000 NSC 07/06 Q1014
  • 171050Z 19009KT CAVOK 07/06 Q1014
  • 171020Z 19010KT CAVOK 07/06 Q1013

TAF TAF EDXW
Valido dal 17 a 12 ore il 17 a 18 ore UTC


171100Z 1712/1718 18009KT 9999 FEW020
BECMG 1715/1717 07007KT



MetMap, La meteo Aeronautica in un colpo d'occhio ! - Copyright ORBIFLY Dicembre 2007 - Disclaimer

ORBIFLY MET'MAP TEAM :

Programmazione e sviluppo : Alexandra Zaïnal
Concezione e sviluppo : Baudouin d'Aumeries
Co-Programmazione e sviluppo : Marc-Olivier Méhu
Supporto tecnico e logistico : Manuel Goepfert
Aiuto per la traduzione : Arnaldo La Scala

Contatto : metmap@orbifly.com




FONTI E CREDITI :

   NOAA